sensor_id;sensor_type;location;lat;lon;timestamp;temperature;humidity
4896;DHT22;2463;49.948;8.472;2023-04-24T00:01:04;11.60;99.90
4896;DHT22;2463;49.948;8.472;2023-04-24T00:03:34;11.50;99.90
4896;DHT22;2463;49.948;8.472;2023-04-24T00:06:01;11.50;99.90
4896;DHT22;2463;49.948;8.472;2023-04-24T00:08:29;11.50;99.90
4896;DHT22;2463;49.948;8.472;2023-04-24T00:10:56;11.60;99.90
4896;DHT22;2463;49.948;8.472;2023-04-24T00:13:22;11.60;99.90
4896;DHT22;2463;49.948;8.472;2023-04-24T00:15:49;11.60;99.90
4896;DHT22;2463;49.948;8.472;2023-04-24T00:18:16;11.60;99.90
4896;DHT22;2463;49.948;8.472;2023-04-24T00:20:43;11.60;99.90
4896;DHT22;2463;49.948;8.472;2023-04-24T00:23:10;11.60;99.90
4896;DHT22;2463;49.948;8.472;2023-04-24T00:25:37;11.70;99.90
4896;DHT22;2463;49.948;8.472;2023-04-24T00:28:03;11.60;99.90
4896;DHT22;2463;49.948;8.472;2023-04-24T00:30:30;11.60;99.90
4896;DHT22;2463;49.948;8.472;2023-04-24T00:32:57;11.60;99.90
4896;DHT22;2463;49.948;8.472;2023-04-24T00:35:25;11.60;99.90
4896;DHT22;2463;49.948;8.472;2023-04-24T00:37:51;11.60;99.90
4896;DHT22;2463;49.948;8.472;2023-04-24T00:40:18;11.60;99.90
4896;DHT22;2463;49.948;8.472;2023-04-24T00:42:45;11.70;99.90
4896;DHT22;2463;49.948;8.472;2023-04-24T00:45:12;11.70;99.90
4896;DHT22;2463;49.948;8.472;2023-04-24T00:47:40;11.60;99.90
4896;DHT22;2463;49.948;8.472;2023-04-24T00:50:08;11.50;99.90
4896;DHT22;2463;49.948;8.472;2023-04-24T00:52:35;11.50;99.90
4896;DHT22;2463;49.948;8.472;2023-04-24T00:55:02;11.50;99.90
4896;DHT22;2463;49.948;8.472;2023-04-24T00:57:30;11.60;99.90
4896;DHT22;2463;49.948;8.472;2023-04-24T00:59:57;11.60;99.90
4896;DHT22;2463;49.948;8.472;2023-04-24T01:02:24;11.60;99.90
4896;DHT22;2463;49.948;8.472;2023-04-24T01:04:51;11.60;99.90
4896;DHT22;2463;49.948;8.472;2023-04-24T01:07:20;11.60;99.90
4896;DHT22;2463;49.948;8.472;2023-04-24T01:09:48;11.60;99.90
4896;DHT22;2463;49.948;8.472;2023-04-24T01:12:15;11.50;99.90
4896;DHT22;2463;49.948;8.472;2023-04-24T01:14:42;11.50;99.90
4896;DHT22;2463;49.948;8.472;2023-04-24T01:17:09;11.40;99.90
4896;DHT22;2463;49.948;8.472;2023-04-24T01:19:36;11.30;99.90
4896;DHT22;2463;49.948;8.472;2023-04-24T01:22:11;11.30;99.90
4896;DHT22;2463;49.948;8.472;2023-04-24T01:24:38;11.30;99.90
4896;DHT22;2463;49.948;8.472;2023-04-24T01:27:05;11.20;99.90
4896;DHT22;2463;49.948;8.472;2023-04-24T01:29:32;11.20;99.90
4896;DHT22;2463;49.948;8.472;2023-04-24T01:31:59;11.20;99.90
4896;DHT22;2463;49.948;8.472;2023-04-24T01:34:26;11.20;99.90
4896;DHT22;2463;49.948;8.472;2023-04-24T01:36:53;11.30;99.90
4896;DHT22;2463;49.948;8.472;2023-04-24T01:39:20;11.20;99.90
4896;DHT22;2463;49.948;8.472;2023-04-24T01:41:49;11.20;99.90
4896;DHT22;2463;49.948;8.472;2023-04-24T01:44:17;11.20;99.90
4896;DHT22;2463;49.948;8.472;2023-04-24T01:46:44;11.20;99.90
4896;DHT22;2463;49.948;8.472;2023-04-24T01:49:11;11.20;99.90
4896;DHT22;2463;49.948;8.472;2023-04-24T01:51:38;11.10;99.90
4896;DHT22;2463;49.948;8.472;2023-04-24T01:54:05;11.20;99.90
4896;DHT22;2463;49.948;8.472;2023-04-24T01:56:34;11.20;99.90
4896;DHT22;2463;49.948;8.472;2023-04-24T01:59:03;11.20;99.90
4896;DHT22;2463;49.948;8.472;2023-04-24T02:01:36;11.30;99.90
4896;DHT22;2463;49.948;8.472;2023-04-24T02:04:04;11.30;99.90
4896;DHT22;2463;49.948;8.472;2023-04-24T02:06:31;11.40;99.90
4896;DHT22;2463;49.948;8.472;2023-04-24T02:08:59;11.40;99.90
4896;DHT22;2463;49.948;8.472;2023-04-24T02:11:26;11.40;99.90
4896;DHT22;2463;49.948;8.472;2023-04-24T02:13:53;11.50;99.90
4896;DHT22;2463;49.948;8.472;2023-04-24T02:16:19;11.50;99.90
4896;DHT22;2463;49.948;8.472;2023-04-24T02:18:46;11.40;99.90
4896;DHT22;2463;49.948;8.472;2023-04-24T02:21:13;11.50;99.90
4896;DHT22;2463;49.948;8.472;2023-04-24T02:23:40;11.40;99.90
4896;DHT22;2463;49.948;8.472;2023-04-24T02:26:06;11.50;99.90
4896;DHT22;2463;49.948;8.472;2023-04-24T02:28:33;11.40;99.90
4896;DHT22;2463;49.948;8.472;2023-04-24T02:31:00;11.50;99.90
4896;DHT22;2463;49.948;8.472;2023-04-24T02:33:27;11.40;99.90
4896;DHT22;2463;49.948;8.472;2023-04-24T02:35:53;11.40;99.90
4896;DHT22;2463;49.948;8.472;2023-04-24T02:38:20;11.40;99.90
4896;DHT22;2463;49.948;8.472;2023-04-24T02:40:47;10.30;99.90
4896;DHT22;2463;49.948;8.472;2023-04-24T02:43:13;11.40;99.90
4896;DHT22;2463;49.948;8.472;2023-04-24T02:45:40;11.40;99.90
4896;DHT22;2463;49.948;8.472;2023-04-24T02:48:07;11.40;99.90
4896;DHT22;2463;49.948;8.472;2023-04-24T02:50:33;11.40;99.90
4896;DHT22;2463;49.948;8.472;2023-04-24T02:53:00;11.50;99.90
4896;DHT22;2463;49.948;8.472;2023-04-24T02:55:26;11.50;99.90
4896;DHT22;2463;49.948;8.472;2023-04-24T02:57:53;11.50;99.90
4896;DHT22;2463;49.948;8.472;2023-04-24T03:00:20;11.50;99.90
4896;DHT22;2463;49.948;8.472;2023-04-24T03:02:47;11.50;99.90
4896;DHT22;2463;49.948;8.472;2023-04-24T03:05:14;11.40;99.90
4896;DHT22;2463;49.948;8.472;2023-04-24T03:07:41;11.50;99.90
4896;DHT22;2463;49.948;8.472;2023-04-24T03:10:08;11.50;99.90
4896;DHT22;2463;49.948;8.472;2023-04-24T03:12:35;11.50;99.90
4896;DHT22;2463;49.948;8.472;2023-04-24T03:15:01;11.60;99.90
4896;DHT22;2463;49.948;8.472;2023-04-24T03:17:28;11.60;99.90
4896;DHT22;2463;49.948;8.472;2023-04-24T03:19:55;11.60;99.90
4896;DHT22;2463;49.948;8.472;2023-04-24T03:22:21;11.60;99.90
4896;DHT22;2463;49.948;8.472;2023-04-24T03:24:48;11.60;99.90
4896;DHT22;2463;49.948;8.472;2023-04-24T03:27:15;11.60;99.90
4896;DHT22;2463;49.948;8.472;2023-04-24T03:29:41;11.60;99.90
4896;DHT22;2463;49.948;8.472;2023-04-24T03:32:08;11.70;99.90
4896;DHT22;2463;49.948;8.472;2023-04-24T03:34:35;11.70;99.90
4896;DHT22;2463;49.948;8.472;2023-04-24T03:37:02;11.60;99.90
4896;DHT22;2463;49.948;8.472;2023-04-24T03:39:28;11.60;99.90
4896;DHT22;2463;49.948;8.472;2023-04-24T03:41:55;11.60;99.90
4896;DHT22;2463;49.948;8.472;2023-04-24T03:44:22;11.50;99.90
4896;DHT22;2463;49.948;8.472;2023-04-24T03:46:48;11.50;99.90
4896;DHT22;2463;49.948;8.472;2023-04-24T03:49:15;11.50;99.90
4896;DHT22;2463;49.948;8.472;2023-04-24T03:51:42;11.50;99.90
4896;DHT22;2463;49.948;8.472;2023-04-24T03:54:08;11.50;99.90
4896;DHT22;2463;49.948;8.472;2023-04-24T03:56:35;11.50;99.90
4896;DHT22;2463;49.948;8.472;2023-04-24T03:59:02;11.40;99.90
4896;DHT22;2463;49.948;8.472;2023-04-24T04:01:28;11.50;99.90
4896;DHT22;2463;49.948;8.472;2023-04-24T04:03:55;11.40;99.90
4896;DHT22;2463;49.948;8.472;2023-04-24T04:06:22;11.50;99.90
4896;DHT22;2463;49.948;8.472;2023-04-24T04:08:49;11.50;99.90
4896;DHT22;2463;49.948;8.472;2023-04-24T04:11:16;11.40;99.90
4896;DHT22;2463;49.948;8.472;2023-04-24T04:13:43;11.40;99.90
4896;DHT22;2463;49.948;8.472;2023-04-24T04:16:09;11.30;99.90
4896;DHT22;2463;49.948;8.472;2023-04-24T04:18:36;11.30;99.90
4896;DHT22;2463;49.948;8.472;2023-04-24T04:21:04;11.20;99.90
4896;DHT22;2463;49.948;8.472;2023-04-24T04:23:30;11.10;99.90
4896;DHT22;2463;49.948;8.472;2023-04-24T04:25:58;11.00;99.90
4896;DHT22;2463;49.948;8.472;2023-04-24T04:28:25;10.80;99.90
4896;DHT22;2463;49.948;8.472;2023-04-24T04:30:53;10.70;99.90
4896;DHT22;2463;49.948;8.472;2023-04-24T04:33:24;10.70;99.90
4896;DHT22;2463;49.948;8.472;2023-04-24T04:35:52;10.70;99.90
4896;DHT22;2463;49.948;8.472;2023-04-24T04:38:19;10.60;99.90
4896;DHT22;2463;49.948;8.472;2023-04-24T04:40:46;10.50;99.90
4896;DHT22;2463;49.948;8.472;2023-04-24T04:43:13;10.50;99.90
4896;DHT22;2463;49.948;8.472;2023-04-24T04:45:42;10.50;99.90
4896;DHT22;2463;49.948;8.472;2023-04-24T04:48:09;10.50;99.90
4896;DHT22;2463;49.948;8.472;2023-04-24T04:50:39;10.50;99.90
4896;DHT22;2463;49.948;8.472;2023-04-24T04:53:05;10.50;99.90
4896;DHT22;2463;49.948;8.472;2023-04-24T04:55:33;10.50;99.90
4896;DHT22;2463;49.948;8.472;2023-04-24T04:58:00;10.40;99.90
4896;DHT22;2463;49.948;8.472;2023-04-24T05:00:27;10.50;99.90
4896;DHT22;2463;49.948;8.472;2023-04-24T05:02:55;10.40;99.90
4896;DHT22;2463;49.948;8.472;2023-04-24T05:05:38;10.50;99.90
4896;DHT22;2463;49.948;8.472;2023-04-24T05:08:08;10.50;99.90
4896;DHT22;2463;49.948;8.472;2023-04-24T05:10:51;10.50;99.90
4896;DHT22;2463;49.948;8.472;2023-04-24T05:13:18;10.60;99.90
4896;DHT22;2463;49.948;8.472;2023-04-24T05:15:57;10.60;99.90
4896;DHT22;2463;49.948;8.472;2023-04-24T05:18:24;10.60;99.90
4896;DHT22;2463;49.948;8.472;2023-04-24T05:20:51;10.70;99.90
4896;DHT22;2463;49.948;8.472;2023-04-24T05:23:18;10.70;99.90
4896;DHT22;2463;49.948;8.472;2023-04-24T05:25:45;10.70;99.90
4896;DHT22;2463;49.948;8.472;2023-04-24T05:28:12;10.70;99.90
4896;DHT22;2463;49.948;8.472;2023-04-24T05:30:39;10.80;99.90
4896;DHT22;2463;49.948;8.472;2023-04-24T05:33:06;10.90;99.90
4896;DHT22;2463;49.948;8.472;2023-04-24T05:35:33;10.90;99.90
4896;DHT22;2463;49.948;8.472;2023-04-24T05:37:59;10.90;99.90
4896;DHT22;2463;49.948;8.472;2023-04-24T05:40:26;10.80;99.90
4896;DHT22;2463;49.948;8.472;2023-04-24T05:42:52;10.80;99.90
4896;DHT22;2463;49.948;8.472;2023-04-24T05:45:19;10.70;99.90
4896;DHT22;2463;49.948;8.472;2023-04-24T05:47:46;10.60;99.90
4896;DHT22;2463;49.948;8.472;2023-04-24T05:50:13;10.60;99.90
4896;DHT22;2463;49.948;8.472;2023-04-24T05:52:40;10.60;99.90
4896;DHT22;2463;49.948;8.472;2023-04-24T05:55:07;10.70;99.90
4896;DHT22;2463;49.948;8.472;2023-04-24T05:57:34;10.80;99.90
4896;DHT22;2463;49.948;8.472;2023-04-24T06:00:01;10.90;99.90
4896;DHT22;2463;49.948;8.472;2023-04-24T06:02:27;10.90;99.90
4896;DHT22;2463;49.948;8.472;2023-04-24T06:04:59;11.00;99.90
4896;DHT22;2463;49.948;8.472;2023-04-24T06:07:26;10.90;99.90
4896;DHT22;2463;49.948;8.472;2023-04-24T06:09:53;10.90;99.90
4896;DHT22;2463;49.948;8.472;2023-04-24T06:12:19;10.90;99.90
4896;DHT22;2463;49.948;8.472;2023-04-24T06:14:46;11.00;99.90
4896;DHT22;2463;49.948;8.472;2023-04-24T06:17:13;11.20;99.90
4896;DHT22;2463;49.948;8.472;2023-04-24T06:19:39;11.30;99.90
4896;DHT22;2463;49.948;8.472;2023-04-24T06:22:07;11.50;99.90
4896;DHT22;2463;49.948;8.472;2023-04-24T06:24:36;11.70;99.90
4896;DHT22;2463;49.948;8.472;2023-04-24T06:27:03;11.70;99.90
4896;DHT22;2463;49.948;8.472;2023-04-24T06:29:30;11.80;99.90
4896;DHT22;2463;49.948;8.472;2023-04-24T06:31:56;11.80;99.90
4896;DHT22;2463;49.948;8.472;2023-04-24T06:34:23;11.70;99.90
4896;DHT22;2463;49.948;8.472;2023-04-24T06:36:50;11.70;99.90
4896;DHT22;2463;49.948;8.472;2023-04-24T06:39:16;11.70;99.90
4896;DHT22;2463;49.948;8.472;2023-04-24T06:41:43;11.80;99.90
4896;DHT22;2463;49.948;8.472;2023-04-24T06:44:10;11.80;99.90
4896;DHT22;2463;49.948;8.472;2023-04-24T06:46:36;11.80;99.90
4896;DHT22;2463;49.948;8.472;2023-04-24T06:49:06;11.90;99.90
4896;DHT22;2463;49.948;8.472;2023-04-24T06:51:33;12.00;99.90
4896;DHT22;2463;49.948;8.472;2023-04-24T06:53:59;12.00;99.90
4896;DHT22;2463;49.948;8.472;2023-04-24T06:56:26;12.10;99.90
4896;DHT22;2463;49.948;8.472;2023-04-24T06:58:55;12.10;99.90
4896;DHT22;2463;49.948;8.472;2023-04-24T07:01:21;12.20;99.90
4896;DHT22;2463;49.948;8.472;2023-04-24T07:03:48;12.20;99.90
4896;DHT22;2463;49.948;8.472;2023-04-24T07:06:15;12.30;99.90
4896;DHT22;2463;49.948;8.472;2023-04-24T07:08:43;12.40;99.90
4896;DHT22;2463;49.948;8.472;2023-04-24T07:11:10;12.40;99.90
4896;DHT22;2463;49.948;8.472;2023-04-24T07:13:36;12.40;99.90
4896;DHT22;2463;49.948;8.472;2023-04-24T07:16:08;12.40;99.90
4896;DHT22;2463;49.948;8.472;2023-04-24T07:18:35;12.50;99.90
4896;DHT22;2463;49.948;8.472;2023-04-24T07:21:03;13.10;99.90
4896;DHT22;2463;49.948;8.472;2023-04-24T07:23:29;13.90;99.90
4896;DHT22;2463;49.948;8.472;2023-04-24T07:25:57;14.80;99.90
4896;DHT22;2463;49.948;8.472;2023-04-24T07:28:24;15.20;99.90
4896;DHT22;2463;49.948;8.472;2023-04-24T07:30:51;15.30;99.90
4896;DHT22;2463;49.948;8.472;2023-04-24T07:33:20;15.20;99.90
4896;DHT22;2463;49.948;8.472;2023-04-24T07:35:47;15.10;99.90
4896;DHT22;2463;49.948;8.472;2023-04-24T07:38:14;15.10;99.90
4896;DHT22;2463;49.948;8.472;2023-04-24T07:40:40;15.20;99.90
4896;DHT22;2463;49.948;8.472;2023-04-24T07:43:07;15.60;99.90
4896;DHT22;2463;49.948;8.472;2023-04-24T07:45:34;16.00;99.90
4896;DHT22;2463;49.948;8.472;2023-04-24T07:48:03;16.20;99.90
4896;DHT22;2463;49.948;8.472;2023-04-24T07:50:30;16.20;99.90
4896;DHT22;2463;49.948;8.472;2023-04-24T07:52:57;16.30;99.90
4896;DHT22;2463;49.948;8.472;2023-04-24T07:55:24;16.30;99.90
4896;DHT22;2463;49.948;8.472;2023-04-24T07:57:53;16.00;99.90
4896;DHT22;2463;49.948;8.472;2023-04-24T08:00:20;15.80;99.90
4896;DHT22;2463;49.948;8.472;2023-04-24T08:02:47;15.90;99.90
4896;DHT22;2463;49.948;8.472;2023-04-24T08:05:14;16.10;99.90
4896;DHT22;2463;49.948;8.472;2023-04-24T08:07:41;16.40;99.90
4896;DHT22;2463;49.948;8.472;2023-04-24T08:10:12;16.80;99.90
4896;DHT22;2463;49.948;8.472;2023-04-24T08:12:38;17.20;99.90
4896;DHT22;2463;49.948;8.472;2023-04-24T08:15:06;17.50;99.90
4896;DHT22;2463;49.948;8.472;2023-04-24T08:17:34;17.70;99.90
4896;DHT22;2463;49.948;8.472;2023-04-24T08:20:02;17.70;99.90
4896;DHT22;2463;49.948;8.472;2023-04-24T08:22:31;17.70;99.90
4896;DHT22;2463;49.948;8.472;2023-04-24T08:25:00;17.60;99.90
4896;DHT22;2463;49.948;8.472;2023-04-24T08:27:26;17.80;99.90
4896;DHT22;2463;49.948;8.472;2023-04-24T08:29:54;18.20;99.90
4896;DHT22;2463;49.948;8.472;2023-04-24T08:32:21;18.20;99.90
4896;DHT22;2463;49.948;8.472;2023-04-24T08:34:48;18.00;99.90
4896;DHT22;2463;49.948;8.472;2023-04-24T08:37:15;17.90;99.90
4896;DHT22;2463;49.948;8.472;2023-04-24T08:39:42;18.00;99.90
4896;DHT22;2463;49.948;8.472;2023-04-24T08:42:10;18.10;99.90
4896;DHT22;2463;49.948;8.472;2023-04-24T08:44:38;17.70;99.90
4896;DHT22;2463;49.948;8.472;2023-04-24T08:47:05;17.40;99.90
4896;DHT22;2463;49.948;8.472;2023-04-24T08:49:35;17.20;99.90
4896;DHT22;2463;49.948;8.472;2023-04-24T08:52:02;16.80;99.90
4896;DHT22;2463;49.948;8.472;2023-04-24T08:54:29;16.50;99.90
4896;DHT22;2463;49.948;8.472;2023-04-24T08:57:00;16.50;99.90
4896;DHT22;2463;49.948;8.472;2023-04-24T08:59:31;16.10;99.90
4896;DHT22;2463;49.948;8.472;2023-04-24T09:01:58;15.70;99.90
4896;DHT22;2463;49.948;8.472;2023-04-24T09:04:25;15.40;99.90
4896;DHT22;2463;49.948;8.472;2023-04-24T09:06:56;15.20;99.90
4896;DHT22;2463;49.948;8.472;2023-04-24T09:09:24;14.70;99.90
4896;DHT22;2463;49.948;8.472;2023-04-24T09:11:52;14.30;99.90
4896;DHT22;2463;49.948;8.472;2023-04-24T09:14:21;14.00;99.90
4896;DHT22;2463;49.948;8.472;2023-04-24T09:16:50;14.00;99.90
4896;DHT22;2463;49.948;8.472;2023-04-24T09:19:17;14.00;99.90
4896;DHT22;2463;49.948;8.472;2023-04-24T09:21:46;14.20;99.90
4896;DHT22;2463;49.948;8.472;2023-04-24T09:24:18;14.20;99.90
4896;DHT22;2463;49.948;8.472;2023-04-24T09:26:46;14.30;99.90
4896;DHT22;2463;49.948;8.472;2023-04-24T09:29:17;14.30;99.90
4896;DHT22;2463;49.948;8.472;2023-04-24T09:31:45;14.30;99.90
4896;DHT22;2463;49.948;8.472;2023-04-24T09:34:12;14.30;99.90
4896;DHT22;2463;49.948;8.472;2023-04-24T09:36:42;14.60;99.90
4896;DHT22;2463;49.948;8.472;2023-04-24T09:39:14;14.90;99.90
4896;DHT22;2463;49.948;8.472;2023-04-24T09:41:56;14.60;99.90
4896;DHT22;2463;49.948;8.472;2023-04-24T09:44:28;14.20;99.90
4896;DHT22;2463;49.948;8.472;2023-04-24T09:46:59;14.10;99.90
4896;DHT22;2463;49.948;8.472;2023-04-24T09:49:30;14.20;99.90
4896;DHT22;2463;49.948;8.472;2023-04-24T09:52:10;14.70;99.90
4896;DHT22;2463;49.948;8.472;2023-04-24T09:54:38;15.00;99.90
4896;DHT22;2463;49.948;8.472;2023-04-24T09:57:06;15.20;99.90
4896;DHT22;2463;49.948;8.472;2023-04-24T09:59:33;15.40;99.90
4896;DHT22;2463;49.948;8.472;2023-04-24T10:02:03;15.30;99.90
4896;DHT22;2463;49.948;8.472;2023-04-24T10:04:54;15.20;99.90
4896;DHT22;2463;49.948;8.472;2023-04-24T10:07:25;14.80;99.90
4896;DHT22;2463;49.948;8.472;2023-04-24T10:09:52;14.40;99.90
4896;DHT22;2463;49.948;8.472;2023-04-24T10:12:19;14.20;99.90
4896;DHT22;2463;49.948;8.472;2023-04-24T10:14:48;14.10;99.90
4896;DHT22;2463;49.948;8.472;2023-04-24T10:17:15;14.00;99.90
4896;DHT22;2463;49.948;8.472;2023-04-24T10:19:43;13.80;99.90
4896;DHT22;2463;49.948;8.472;2023-04-24T10:22:10;13.60;99.90
4896;DHT22;2463;49.948;8.472;2023-04-24T10:24:37;13.80;99.90
4896;DHT22;2463;49.948;8.472;2023-04-24T10:27:05;14.30;99.90
4896;DHT22;2463;49.948;8.472;2023-04-24T10:29:32;15.10;99.90
4896;DHT22;2463;49.948;8.472;2023-04-24T10:32:02;15.90;99.90
4896;DHT22;2463;49.948;8.472;2023-04-24T10:34:29;16.40;99.90
4896;DHT22;2463;49.948;8.472;2023-04-24T10:36:56;16.80;99.90
4896;DHT22;2463;49.948;8.472;2023-04-24T10:39:24;16.80;99.90
4896;DHT22;2463;49.948;8.472;2023-04-24T10:41:54;16.50;99.90
4896;DHT22;2463;49.948;8.472;2023-04-24T10:44:24;16.30;99.90
4896;DHT22;2463;49.948;8.472;2023-04-24T10:46:55;16.20;99.90
4896;DHT22;2463;49.948;8.472;2023-04-24T10:49:30;15.90;99.90
4896;DHT22;2463;49.948;8.472;2023-04-24T10:52:04;15.70;99.90
4896;DHT22;2463;49.948;8.472;2023-04-24T10:59:50;15.50;99.90
4896;DHT22;2463;49.948;8.472;2023-04-24T11:02:17;14.40;99.90
4896;DHT22;2463;49.948;8.472;2023-04-24T11:04:44;14.00;99.90
4896;DHT22;2463;49.948;8.472;2023-04-24T11:07:12;13.80;99.90
4896;DHT22;2463;49.948;8.472;2023-04-24T11:09:39;13.70;99.90
4896;DHT22;2463;49.948;8.472;2023-04-24T11:12:10;13.50;99.90
4896;DHT22;2463;49.948;8.472;2023-04-24T11:17:35;13.90;99.90
4896;DHT22;2463;49.948;8.472;2023-04-24T11:20:07;14.00;99.90
4896;DHT22;2463;49.948;8.472;2023-04-24T11:22:54;14.30;99.90
4896;DHT22;2463;49.948;8.472;2023-04-24T11:25:21;13.90;99.90
4896;DHT22;2463;49.948;8.472;2023-04-24T11:27:49;13.70;99.90
4896;DHT22;2463;49.948;8.472;2023-04-24T11:30:20;13.60;99.90
4896;DHT22;2463;49.948;8.472;2023-04-24T11:32:49;13.30;99.90
4896;DHT22;2463;49.948;8.472;2023-04-24T11:37:46;13.20;99.90
4896;DHT22;2463;49.948;8.472;2023-04-24T11:40:33;13.00;99.90
4896;DHT22;2463;49.948;8.472;2023-04-24T11:43:00;12.90;99.90
4896;DHT22;2463;49.948;8.472;2023-04-24T11:45:29;12.90;99.90
4896;DHT22;2463;49.948;8.472;2023-04-24T11:47:57;13.10;99.90
4896;DHT22;2463;49.948;8.472;2023-04-24T11:50:26;13.60;99.90
4896;DHT22;2463;49.948;8.472;2023-04-24T11:52:54;13.90;99.90
4896;DHT22;2463;49.948;8.472;2023-04-24T11:57:50;14.70;99.90
4896;DHT22;2463;49.948;8.472;2023-04-24T12:00:23;14.90;99.90
4896;DHT22;2463;49.948;8.472;2023-04-24T12:02:50;15.00;99.90
4896;DHT22;2463;49.948;8.472;2023-04-24T12:05:22;15.00;99.90
4896;DHT22;2463;49.948;8.472;2023-04-24T12:07:49;15.10;99.90
4896;DHT22;2463;49.948;8.472;2023-04-24T12:10:20;15.40;99.90
4896;DHT22;2463;49.948;8.472;2023-04-24T12:12:47;15.80;99.90
4896;DHT22;2463;49.948;8.472;2023-04-24T12:15:18;16.00;99.90
4896;DHT22;2463;49.948;8.472;2023-04-24T12:17:45;16.40;99.90
4896;DHT22;2463;49.948;8.472;2023-04-24T12:20:13;16.70;99.90
4896;DHT22;2463;49.948;8.472;2023-04-24T12:22:49;16.90;99.90
4896;DHT22;2463;49.948;8.472;2023-04-24T12:25:18;17.00;99.90
4896;DHT22;2463;49.948;8.472;2023-04-24T12:27:45;16.80;99.90
4896;DHT22;2463;49.948;8.472;2023-04-24T12:30:16;16.60;99.90
4896;DHT22;2463;49.948;8.472;2023-04-24T12:32:44;16.40;99.90
4896;DHT22;2463;49.948;8.472;2023-04-24T12:35:12;16.30;99.90
4896;DHT22;2463;49.948;8.472;2023-04-24T12:37:41;16.20;99.90
4896;DHT22;2463;49.948;8.472;2023-04-24T12:40:13;16.10;99.90
4896;DHT22;2463;49.948;8.472;2023-04-24T12:42:45;15.90;99.90
4896;DHT22;2463;49.948;8.472;2023-04-24T12:45:12;15.80;99.90
4896;DHT22;2463;49.948;8.472;2023-04-24T12:47:40;15.70;99.90
4896;DHT22;2463;49.948;8.472;2023-04-24T12:50:08;15.70;99.90
4896;DHT22;2463;49.948;8.472;2023-04-24T12:52:37;15.70;99.90
4896;DHT22;2463;49.948;8.472;2023-04-24T12:55:04;15.80;99.90
4896;DHT22;2463;49.948;8.472;2023-04-24T12:57:33;16.10;99.90
4896;DHT22;2463;49.948;8.472;2023-04-24T13:00:00;16.30;99.90
4896;DHT22;2463;49.948;8.472;2023-04-24T13:02:28;16.80;99.90
4896;DHT22;2463;49.948;8.472;2023-04-24T13:04:57;16.90;99.90
4896;DHT22;2463;49.948;8.472;2023-04-24T13:07:25;16.90;99.90
4896;DHT22;2463;49.948;8.472;2023-04-24T13:09:52;17.00;99.90
4896;DHT22;2463;49.948;8.472;2023-04-24T13:12:19;17.10;99.90
4896;DHT22;2463;49.948;8.472;2023-04-24T13:14:47;17.30;99.90
4896;DHT22;2463;49.948;8.472;2023-04-24T13:17:14;17.50;99.90
4896;DHT22;2463;49.948;8.472;2023-04-24T13:19:43;17.60;99.90
4896;DHT22;2463;49.948;8.472;2023-04-24T13:22:11;17.90;99.90
4896;DHT22;2463;49.948;8.472;2023-04-24T13:24:39;18.10;99.90
4896;DHT22;2463;49.948;8.472;2023-04-24T13:27:09;18.10;99.90
4896;DHT22;2463;49.948;8.472;2023-04-24T13:29:36;18.00;99.90
4896;DHT22;2463;49.948;8.472;2023-04-24T13:32:03;17.80;99.90
4896;DHT22;2463;49.948;8.472;2023-04-24T13:34:30;17.40;99.90
4896;DHT22;2463;49.948;8.472;2023-04-24T13:36:57;16.90;99.90
4896;DHT22;2463;49.948;8.472;2023-04-24T13:39:25;16.60;99.90
4896;DHT22;2463;49.948;8.472;2023-04-24T13:41:53;16.30;99.90
4896;DHT22;2463;49.948;8.472;2023-04-24T13:44:21;15.90;99.90
4896;DHT22;2463;49.948;8.472;2023-04-24T13:46:51;15.70;99.90
4896;DHT22;2463;49.948;8.472;2023-04-24T13:49:18;15.70;99.90
4896;DHT22;2463;49.948;8.472;2023-04-24T13:51:45;15.80;99.90
4896;DHT22;2463;49.948;8.472;2023-04-24T13:54:12;15.80;99.90
4896;DHT22;2463;49.948;8.472;2023-04-24T13:56:40;15.90;99.90
4896;DHT22;2463;49.948;8.472;2023-04-24T13:59:07;16.20;99.90
4896;DHT22;2463;49.948;8.472;2023-04-24T14:01:33;16.40;99.90
4896;DHT22;2463;49.948;8.472;2023-04-24T14:04:00;16.60;99.90
4896;DHT22;2463;49.948;8.472;2023-04-24T14:06:27;16.50;99.90
4896;DHT22;2463;49.948;8.472;2023-04-24T14:08:54;16.30;99.90
4896;DHT22;2463;49.948;8.472;2023-04-24T14:11:21;16.20;99.90
4896;DHT22;2463;49.948;8.472;2023-04-24T14:13:48;16.10;99.90
4896;DHT22;2463;49.948;8.472;2023-04-24T14:16:15;15.90;99.90
4896;DHT22;2463;49.948;8.472;2023-04-24T14:18:42;15.80;99.90
4896;DHT22;2463;49.948;8.472;2023-04-24T14:21:09;15.70;99.90
4896;DHT22;2463;49.948;8.472;2023-04-24T14:23:35;15.80;99.90
4896;DHT22;2463;49.948;8.472;2023-04-24T14:26:02;15.80;99.90
4896;DHT22;2463;49.948;8.472;2023-04-24T14:28:29;15.70;99.90
4896;DHT22;2463;49.948;8.472;2023-04-24T14:30:56;15.70;99.90
4896;DHT22;2463;49.948;8.472;2023-04-24T14:33:22;15.60;99.90
4896;DHT22;2463;49.948;8.472;2023-04-24T14:35:49;15.60;99.90
4896;DHT22;2463;49.948;8.472;2023-04-24T14:38:16;15.50;99.90
4896;DHT22;2463;49.948;8.472;2023-04-24T14:40:42;15.50;99.90
4896;DHT22;2463;49.948;8.472;2023-04-24T14:43:29;15.60;99.90
4896;DHT22;2463;49.948;8.472;2023-04-24T14:45:56;15.70;99.90
4896;DHT22;2463;49.948;8.472;2023-04-24T14:48:23;15.70;99.90
4896;DHT22;2463;49.948;8.472;2023-04-24T14:50:49;15.70;99.90
4896;DHT22;2463;49.948;8.472;2023-04-24T14:53:16;15.70;99.90
4896;DHT22;2463;49.948;8.472;2023-04-24T14:55:43;15.70;99.90
4896;DHT22;2463;49.948;8.472;2023-04-24T14:58:10;15.70;99.90
4896;DHT22;2463;49.948;8.472;2023-04-24T15:00:37;15.60;99.90
4896;DHT22;2463;49.948;8.472;2023-04-24T15:03:04;15.60;99.90
4896;DHT22;2463;49.948;8.472;2023-04-24T15:05:31;15.70;99.90
4896;DHT22;2463;49.948;8.472;2023-04-24T15:07:58;15.70;99.90
4896;DHT22;2463;49.948;8.472;2023-04-24T15:10:25;15.80;99.90
4896;DHT22;2463;49.948;8.472;2023-04-24T15:12:52;15.80;99.90
4896;DHT22;2463;49.948;8.472;2023-04-24T15:15:19;15.70;99.90
4896;DHT22;2463;49.948;8.472;2023-04-24T15:17:45;15.70;99.90
4896;DHT22;2463;49.948;8.472;2023-04-24T15:20:12;15.70;99.90
4896;DHT22;2463;49.948;8.472;2023-04-24T15:22:39;15.70;99.90
4896;DHT22;2463;49.948;8.472;2023-04-24T15:25:06;15.60;99.90
4896;DHT22;2463;49.948;8.472;2023-04-24T15:27:45;15.40;99.90
4896;DHT22;2463;49.948;8.472;2023-04-24T15:30:13;15.20;99.90
4896;DHT22;2463;49.948;8.472;2023-04-24T15:32:40;15.10;99.90
4896;DHT22;2463;49.948;8.472;2023-04-24T15:35:07;15.00;99.90
4896;DHT22;2463;49.948;8.472;2023-04-24T15:37:36;14.90;99.90
4896;DHT22;2463;49.948;8.472;2023-04-24T15:40:03;15.00;99.90
4896;DHT22;2463;49.948;8.472;2023-04-24T15:42:32;15.00;99.90
4896;DHT22;2463;49.948;8.472;2023-04-24T15:44:58;15.00;99.90
4896;DHT22;2463;49.948;8.472;2023-04-24T15:47:25;14.90;99.90
4896;DHT22;2463;49.948;8.472;2023-04-24T15:49:52;14.80;99.90
4896;DHT22;2463;49.948;8.472;2023-04-24T15:52:20;14.80;99.90
4896;DHT22;2463;49.948;8.472;2023-04-24T15:54:46;14.80;99.90
4896;DHT22;2463;49.948;8.472;2023-04-24T15:57:13;14.70;99.90
4896;DHT22;2463;49.948;8.472;2023-04-24T15:59:40;14.80;99.90
4896;DHT22;2463;49.948;8.472;2023-04-24T16:02:08;14.90;99.90
4896;DHT22;2463;49.948;8.472;2023-04-24T16:04:36;15.00;99.90
4896;DHT22;2463;49.948;8.472;2023-04-24T16:07:03;15.10;99.90
4896;DHT22;2463;49.948;8.472;2023-04-24T16:09:30;15.00;99.90
4896;DHT22;2463;49.948;8.472;2023-04-24T16:11:56;15.00;99.90
4896;DHT22;2463;49.948;8.472;2023-04-24T16:14:23;15.00;99.90
4896;DHT22;2463;49.948;8.472;2023-04-24T16:16:50;15.00;99.90
4896;DHT22;2463;49.948;8.472;2023-04-24T16:19:17;15.00;99.90